sensor_id;sensor_type;location;lat;lon;timestamp;P1;durP1;ratioP1;P2;durP2;ratioP2
26269;SDS011;15937;50.612;6.656;2023-05-29T00:02:44;9.82;;;5.32;;
26269;SDS011;15937;50.612;6.656;2023-05-29T00:06:46;16.00;;;5.28;;
26269;SDS011;15937;50.612;6.656;2023-05-29T00:10:48;17.20;;;5.20;;
26269;SDS011;15937;50.612;6.656;2023-05-29T00:14:50;18.48;;;5.22;;
26269;SDS011;15937;50.612;6.656;2023-05-29T00:18:51;11.77;;;4.82;;
26269;SDS011;15937;50.612;6.656;2023-05-29T00:22:55;11.55;;;4.68;;
26269;SDS011;15937;50.612;6.656;2023-05-29T00:26:57;10.90;;;4.68;;
26269;SDS011;15937;50.612;6.656;2023-05-29T00:30:58;14.20;;;4.60;;
26269;SDS011;15937;50.612;6.656;2023-05-29T00:35:01;12.10;;;5.23;;
26269;SDS011;15937;50.612;6.656;2023-05-29T00:39:02;12.80;;;4.80;;
26269;SDS011;15937;50.612;6.656;2023-05-29T00:43:04;16.10;;;5.40;;
26269;SDS011;15937;50.612;6.656;2023-05-29T00:47:06;15.65;;;5.03;;
26269;SDS011;15937;50.612;6.656;2023-05-29T00:51:08;19.40;;;5.28;;
26269;SDS011;15937;50.612;6.656;2023-05-29T00:55:12;11.05;;;4.38;;
26269;SDS011;15937;50.612;6.656;2023-05-29T00:59:15;16.13;;;4.70;;
26269;SDS011;15937;50.612;6.656;2023-05-29T01:03:19;11.85;;;4.82;;
26269;SDS011;15937;50.612;6.656;2023-05-29T01:07:24;21.48;;;4.88;;
26269;SDS011;15937;50.612;6.656;2023-05-29T01:11:49;12.70;;;4.75;;
26269;SDS011;15937;50.612;6.656;2023-05-29T01:16:07;15.45;;;4.72;;
26269;SDS011;15937;50.612;6.656;2023-05-29T01:20:17;10.90;;;4.22;;
26269;SDS011;15937;50.612;6.656;2023-05-29T01:28:52;9.82;;;4.05;;
26269;SDS011;15937;50.612;6.656;2023-05-29T01:32:58;13.30;;;4.20;;
26269;SDS011;15937;50.612;6.656;2023-05-29T01:37:00;10.48;;;4.55;;
26269;SDS011;15937;50.612;6.656;2023-05-29T01:41:02;12.70;;;4.32;;
26269;SDS011;15937;50.612;6.656;2023-05-29T01:45:05;12.63;;;4.05;;
26269;SDS011;15937;50.612;6.656;2023-05-29T01:53:10;8.40;;;4.00;;
26269;SDS011;15937;50.612;6.656;2023-05-29T01:57:12;13.95;;;3.95;;
26269;SDS011;15937;50.612;6.656;2023-05-29T02:01:14;10.67;;;4.13;;
26269;SDS011;15937;50.612;6.656;2023-05-29T02:05:16;15.77;;;4.22;;
26269;SDS011;15937;50.612;6.656;2023-05-29T02:09:18;8.57;;;4.35;;
26269;SDS011;15937;50.612;6.656;2023-05-29T02:13:21;16.52;;;4.57;;
26269;SDS011;15937;50.612;6.656;2023-05-29T02:17:23;10.43;;;4.35;;
26269;SDS011;15937;50.612;6.656;2023-05-29T02:21:25;14.38;;;4.68;;
26269;SDS011;15937;50.612;6.656;2023-05-29T02:25:27;17.27;;;4.35;;
26269;SDS011;15937;50.612;6.656;2023-05-29T02:29:29;9.13;;;4.22;;
26269;SDS011;15937;50.612;6.656;2023-05-29T02:33:30;10.27;;;3.80;;
26269;SDS011;15937;50.612;6.656;2023-05-29T02:37:32;11.35;;;3.65;;
26269;SDS011;15937;50.612;6.656;2023-05-29T02:41:34;17.42;;;5.13;;
26269;SDS011;15937;50.612;6.656;2023-05-29T02:45:36;13.00;;;4.47;;
26269;SDS011;15937;50.612;6.656;2023-05-29T02:49:37;7.20;;;4.00;;
26269;SDS011;15937;50.612;6.656;2023-05-29T02:53:39;11.48;;;3.90;;
26269;SDS011;15937;50.612;6.656;2023-05-29T02:57:41;12.73;;;5.25;;
26269;SDS011;15937;50.612;6.656;2023-05-29T03:01:43;9.07;;;4.00;;
26269;SDS011;15937;50.612;6.656;2023-05-29T03:05:45;10.18;;;4.65;;
26269;SDS011;15937;50.612;6.656;2023-05-29T03:09:48;10.57;;;4.65;;
26269;SDS011;15937;50.612;6.656;2023-05-29T03:13:49;8.07;;;4.45;;
26269;SDS011;15937;50.612;6.656;2023-05-29T03:17:51;12.23;;;4.43;;
26269;SDS011;15937;50.612;6.656;2023-05-29T03:21:53;12.98;;;4.22;;
26269;SDS011;15937;50.612;6.656;2023-05-29T03:25:55;8.30;;;4.68;;
26269;SDS011;15937;50.612;6.656;2023-05-29T03:29:57;15.60;;;4.82;;
26269;SDS011;15937;50.612;6.656;2023-05-29T03:34:00;9.77;;;4.15;;
26269;SDS011;15937;50.612;6.656;2023-05-29T03:38:03;8.88;;;3.95;;
26269;SDS011;15937;50.612;6.656;2023-05-29T03:42:05;8.43;;;4.47;;
26269;SDS011;15937;50.612;6.656;2023-05-29T03:46:07;10.80;;;5.10;;
26269;SDS011;15937;50.612;6.656;2023-05-29T03:50:09;15.68;;;5.18;;
26269;SDS011;15937;50.612;6.656;2023-05-29T03:54:11;8.33;;;4.73;;
26269;SDS011;15937;50.612;6.656;2023-05-29T03:58:13;19.13;;;5.30;;
26269;SDS011;15937;50.612;6.656;2023-05-29T04:02:15;9.83;;;4.90;;
26269;SDS011;15937;50.612;6.656;2023-05-29T04:06:21;12.00;;;4.78;;
26269;SDS011;15937;50.612;6.656;2023-05-29T04:10:23;10.77;;;4.22;;
26269;SDS011;15937;50.612;6.656;2023-05-29T04:14:25;10.80;;;4.47;;
26269;SDS011;15937;50.612;6.656;2023-05-29T04:18:27;11.50;;;4.20;;
26269;SDS011;15937;50.612;6.656;2023-05-29T04:22:29;7.80;;;3.67;;
26269;SDS011;15937;50.612;6.656;2023-05-29T04:26:31;16.63;;;4.73;;
26269;SDS011;15937;50.612;6.656;2023-05-29T04:30:34;10.60;;;4.23;;
26269;SDS011;15937;50.612;6.656;2023-05-29T04:34:37;17.52;;;4.15;;
26269;SDS011;15937;50.612;6.656;2023-05-29T04:38:49;17.17;;;4.28;;
26269;SDS011;15937;50.612;6.656;2023-05-29T04:42:52;18.98;;;5.10;;
26269;SDS011;15937;50.612;6.656;2023-05-29T04:46:54;10.52;;;3.97;;
26269;SDS011;15937;50.612;6.656;2023-05-29T04:50:58;13.80;;;3.97;;
26269;SDS011;15937;50.612;6.656;2023-05-29T04:55:00;13.17;;;4.33;;
26269;SDS011;15937;50.612;6.656;2023-05-29T04:59:02;9.75;;;4.00;;
26269;SDS011;15937;50.612;6.656;2023-05-29T05:03:04;16.23;;;3.70;;
26269;SDS011;15937;50.612;6.656;2023-05-29T05:07:07;7.73;;;3.87;;
26269;SDS011;15937;50.612;6.656;2023-05-29T05:11:09;11.37;;;4.23;;
26269;SDS011;15937;50.612;6.656;2023-05-29T05:15:12;15.98;;;4.20;;
26269;SDS011;15937;50.612;6.656;2023-05-29T05:19:14;13.55;;;3.67;;
26269;SDS011;15937;50.612;6.656;2023-05-29T05:23:16;18.27;;;3.60;;
26269;SDS011;15937;50.612;6.656;2023-05-29T05:27:18;16.33;;;3.45;;
26269;SDS011;15937;50.612;6.656;2023-05-29T05:31:20;13.43;;;3.47;;
26269;SDS011;15937;50.612;6.656;2023-05-29T05:35:22;14.77;;;4.40;;
26269;SDS011;15937;50.612;6.656;2023-05-29T05:39:24;16.58;;;4.18;;
26269;SDS011;15937;50.612;6.656;2023-05-29T05:43:26;18.00;;;3.83;;
26269;SDS011;15937;50.612;6.656;2023-05-29T05:47:28;27.67;;;6.22;;
26269;SDS011;15937;50.612;6.656;2023-05-29T05:51:30;16.00;;;4.07;;
26269;SDS011;15937;50.612;6.656;2023-05-29T05:55:32;27.03;;;4.77;;
26269;SDS011;15937;50.612;6.656;2023-05-29T05:59:35;17.80;;;4.40;;
26269;SDS011;15937;50.612;6.656;2023-05-29T06:03:37;19.58;;;4.18;;
26269;SDS011;15937;50.612;6.656;2023-05-29T06:07:39;21.15;;;5.38;;
26269;SDS011;15937;50.612;6.656;2023-05-29T06:11:41;14.80;;;4.77;;
26269;SDS011;15937;50.612;6.656;2023-05-29T06:15:44;16.55;;;4.80;;
26269;SDS011;15937;50.612;6.656;2023-05-29T06:19:47;19.45;;;4.47;;
26269;SDS011;15937;50.612;6.656;2023-05-29T06:23:49;17.48;;;6.07;;
26269;SDS011;15937;50.612;6.656;2023-05-29T06:27:51;21.90;;;5.57;;
26269;SDS011;15937;50.612;6.656;2023-05-29T06:31:53;16.17;;;5.53;;
26269;SDS011;15937;50.612;6.656;2023-05-29T06:35:55;27.70;;;4.93;;
26269;SDS011;15937;50.612;6.656;2023-05-29T06:39:57;20.13;;;6.27;;
26269;SDS011;15937;50.612;6.656;2023-05-29T06:43:59;14.65;;;5.18;;
26269;SDS011;15937;50.612;6.656;2023-05-29T06:48:01;16.02;;;4.88;;
26269;SDS011;15937;50.612;6.656;2023-05-29T06:52:03;26.58;;;4.70;;
26269;SDS011;15937;50.612;6.656;2023-05-29T06:56:05;19.13;;;5.53;;
26269;SDS011;15937;50.612;6.656;2023-05-29T07:00:07;21.53;;;4.20;;
26269;SDS011;15937;50.612;6.656;2023-05-29T07:04:12;22.00;;;5.65;;
26269;SDS011;15937;50.612;6.656;2023-05-29T07:08:14;32.07;;;6.07;;
26269;SDS011;15937;50.612;6.656;2023-05-29T07:12:16;14.83;;;4.70;;
26269;SDS011;15937;50.612;6.656;2023-05-29T07:16:18;20.98;;;4.88;;
26269;SDS011;15937;50.612;6.656;2023-05-29T07:20:25;22.70;;;5.95;;
26269;SDS011;15937;50.612;6.656;2023-05-29T07:24:27;18.83;;;5.07;;
26269;SDS011;15937;50.612;6.656;2023-05-29T07:28:29;16.45;;;5.30;;
26269;SDS011;15937;50.612;6.656;2023-05-29T07:32:31;18.58;;;4.82;;
26269;SDS011;15937;50.612;6.656;2023-05-29T07:36:33;19.25;;;5.07;;
26269;SDS011;15937;50.612;6.656;2023-05-29T07:40:35;20.50;;;5.43;;
26269;SDS011;15937;50.612;6.656;2023-05-29T07:44:36;21.42;;;5.18;;
26269;SDS011;15937;50.612;6.656;2023-05-29T07:48:38;18.48;;;5.20;;
26269;SDS011;15937;50.612;6.656;2023-05-29T07:52:41;24.20;;;4.80;;
26269;SDS011;15937;50.612;6.656;2023-05-29T07:56:45;22.08;;;4.85;;
26269;SDS011;15937;50.612;6.656;2023-05-29T08:00:47;22.17;;;5.55;;
26269;SDS011;15937;50.612;6.656;2023-05-29T08:08:51;19.67;;;4.93;;
26269;SDS011;15937;50.612;6.656;2023-05-29T08:12:53;18.10;;;5.13;;
26269;SDS011;15937;50.612;6.656;2023-05-29T08:16:55;26.17;;;5.93;;
26269;SDS011;15937;50.612;6.656;2023-05-29T08:20:57;32.42;;;5.28;;
26269;SDS011;15937;50.612;6.656;2023-05-29T08:25:00;20.85;;;5.53;;
26269;SDS011;15937;50.612;6.656;2023-05-29T08:29:02;16.00;;;5.05;;
26269;SDS011;15937;50.612;6.656;2023-05-29T08:33:04;17.92;;;4.97;;
26269;SDS011;15937;50.612;6.656;2023-05-29T08:37:06;14.23;;;4.83;;
26269;SDS011;15937;50.612;6.656;2023-05-29T08:41:08;20.25;;;4.80;;
26269;SDS011;15937;50.612;6.656;2023-05-29T08:45:18;18.38;;;5.03;;
26269;SDS011;15937;50.612;6.656;2023-05-29T08:49:24;21.60;;;5.32;;
26269;SDS011;15937;50.612;6.656;2023-05-29T08:53:31;21.88;;;4.78;;
26269;SDS011;15937;50.612;6.656;2023-05-29T08:57:34;26.63;;;5.15;;
26269;SDS011;15937;50.612;6.656;2023-05-29T09:01:37;21.77;;;5.03;;
26269;SDS011;15937;50.612;6.656;2023-05-29T09:05:40;14.77;;;4.60;;
26269;SDS011;15937;50.612;6.656;2023-05-29T09:09:43;27.45;;;5.47;;
26269;SDS011;15937;50.612;6.656;2023-05-29T09:13:46;20.27;;;5.13;;
26269;SDS011;15937;50.612;6.656;2023-05-29T09:17:52;28.97;;;5.13;;
26269;SDS011;15937;50.612;6.656;2023-05-29T09:22:02;22.45;;;4.75;;
26269;SDS011;15937;50.612;6.656;2023-05-29T09:26:08;24.10;;;5.15;;
26269;SDS011;15937;50.612;6.656;2023-05-29T09:30:30;19.23;;;4.38;;
26269;SDS011;15937;50.612;6.656;2023-05-29T09:34:41;17.60;;;4.88;;
26269;SDS011;15937;50.612;6.656;2023-05-29T09:38:45;21.00;;;4.35;;
26269;SDS011;15937;50.612;6.656;2023-05-29T09:42:53;16.13;;;5.05;;
26269;SDS011;15937;50.612;6.656;2023-05-29T09:46:57;16.67;;;4.90;;
26269;SDS011;15937;50.612;6.656;2023-05-29T09:51:00;22.65;;;5.03;;
26269;SDS011;15937;50.612;6.656;2023-05-29T09:55:04;18.77;;;4.85;;
26269;SDS011;15937;50.612;6.656;2023-05-29T09:59:07;14.57;;;4.25;;
26269;SDS011;15937;50.612;6.656;2023-05-29T10:03:15;15.60;;;4.85;;
26269;SDS011;15937;50.612;6.656;2023-05-29T10:11:26;23.45;;;5.32;;
26269;SDS011;15937;50.612;6.656;2023-05-29T10:15:28;18.80;;;5.05;;
26269;SDS011;15937;50.612;6.656;2023-05-29T10:19:32;31.23;;;5.07;;
26269;SDS011;15937;50.612;6.656;2023-05-29T10:23:37;18.70;;;4.50;;
26269;SDS011;15937;50.612;6.656;2023-05-29T10:27:41;19.38;;;4.80;;
26269;SDS011;15937;50.612;6.656;2023-05-29T10:36:14;17.83;;;4.88;;
26269;SDS011;15937;50.612;6.656;2023-05-29T10:40:24;15.65;;;4.75;;
26269;SDS011;15937;50.612;6.656;2023-05-29T10:48:38;15.75;;;4.03;;
26269;SDS011;15937;50.612;6.656;2023-05-29T10:52:45;18.88;;;4.07;;
26269;SDS011;15937;50.612;6.656;2023-05-29T10:56:52;19.38;;;4.78;;
26269;SDS011;15937;50.612;6.656;2023-05-29T11:00:58;22.88;;;4.80;;
26269;SDS011;15937;50.612;6.656;2023-05-29T11:09:28;16.65;;;4.55;;
26269;SDS011;15937;50.612;6.656;2023-05-29T11:21:52;17.00;;;4.40;;
26269;SDS011;15937;50.612;6.656;2023-05-29T11:26:17;17.60;;;4.50;;
26269;SDS011;15937;50.612;6.656;2023-05-29T11:30:20;16.55;;;4.40;;
26269;SDS011;15937;50.612;6.656;2023-05-29T11:34:23;17.05;;;4.57;;
26269;SDS011;15937;50.612;6.656;2023-05-29T11:38:30;19.02;;;4.60;;
26269;SDS011;15937;50.612;6.656;2023-05-29T11:42:32;19.20;;;4.80;;
26269;SDS011;15937;50.612;6.656;2023-05-29T11:46:34;20.50;;;4.57;;
26269;SDS011;15937;50.612;6.656;2023-05-29T11:50:36;23.38;;;4.60;;
26269;SDS011;15937;50.612;6.656;2023-05-29T11:54:38;15.30;;;4.57;;
26269;SDS011;15937;50.612;6.656;2023-05-29T11:58:40;19.13;;;5.10;;
26269;SDS011;15937;50.612;6.656;2023-05-29T12:02:43;17.65;;;4.50;;
26269;SDS011;15937;50.612;6.656;2023-05-29T12:06:47;21.48;;;4.90;;
26269;SDS011;15937;50.612;6.656;2023-05-29T12:10:50;12.63;;;4.50;;
26269;SDS011;15937;50.612;6.656;2023-05-29T12:14:52;19.70;;;4.05;;
26269;SDS011;15937;50.612;6.656;2023-05-29T12:18:55;15.45;;;4.25;;
26269;SDS011;15937;50.612;6.656;2023-05-29T12:23:00;14.52;;;4.30;;
26269;SDS011;15937;50.612;6.656;2023-05-29T12:27:06;16.80;;;4.80;;
26269;SDS011;15937;50.612;6.656;2023-05-29T12:31:10;14.55;;;4.45;;
26269;SDS011;15937;50.612;6.656;2023-05-29T12:35:20;19.83;;;4.57;;
26269;SDS011;15937;50.612;6.656;2023-05-29T12:39:22;22.83;;;5.20;;
26269;SDS011;15937;50.612;6.656;2023-05-29T12:43:26;21.85;;;4.55;;
26269;SDS011;15937;50.612;6.656;2023-05-29T12:47:27;21.63;;;5.27;;
26269;SDS011;15937;50.612;6.656;2023-05-29T12:51:29;19.58;;;4.53;;
26269;SDS011;15937;50.612;6.656;2023-05-29T12:55:33;21.33;;;4.63;;
26269;SDS011;15937;50.612;6.656;2023-05-29T12:59:43;17.73;;;4.80;;
26269;SDS011;15937;50.612;6.656;2023-05-29T13:03:44;19.35;;;4.03;;
26269;SDS011;15937;50.612;6.656;2023-05-29T13:07:47;17.48;;;4.20;;
26269;SDS011;15937;50.612;6.656;2023-05-29T13:11:49;20.75;;;4.30;;
26269;SDS011;15937;50.612;6.656;2023-05-29T13:15:51;16.93;;;4.67;;
26269;SDS011;15937;50.612;6.656;2023-05-29T13:19:52;16.50;;;4.93;;
26269;SDS011;15937;50.612;6.656;2023-05-29T13:23:54;26.17;;;4.53;;
26269;SDS011;15937;50.612;6.656;2023-05-29T13:27:56;16.07;;;5.00;;
26269;SDS011;15937;50.612;6.656;2023-05-29T13:31:58;22.43;;;4.87;;
26269;SDS011;15937;50.612;6.656;2023-05-29T13:36:00;11.67;;;4.13;;
26269;SDS011;15937;50.612;6.656;2023-05-29T13:40:02;14.48;;;4.00;;
26269;SDS011;15937;50.612;6.656;2023-05-29T13:44:06;20.50;;;4.70;;
26269;SDS011;15937;50.612;6.656;2023-05-29T13:48:07;17.63;;;4.27;;
26269;SDS011;15937;50.612;6.656;2023-05-29T13:52:09;18.83;;;4.27;;
26269;SDS011;15937;50.612;6.656;2023-05-29T13:56:11;13.53;;;3.20;;
26269;SDS011;15937;50.612;6.656;2023-05-29T14:00:13;27.53;;;3.73;;
26269;SDS011;15937;50.612;6.656;2023-05-29T14:04:15;14.90;;;3.67;;
26269;SDS011;15937;50.612;6.656;2023-05-29T14:08:17;21.70;;;3.37;;
26269;SDS011;15937;50.612;6.656;2023-05-29T14:12:19;23.43;;;3.90;;
26269;SDS011;15937;50.612;6.656;2023-05-29T14:16:20;21.23;;;3.87;;
26269;SDS011;15937;50.612;6.656;2023-05-29T14:20:23;20.55;;;3.55;;
26269;SDS011;15937;50.612;6.656;2023-05-29T14:24:25;19.27;;;4.27;;
26269;SDS011;15937;50.612;6.656;2023-05-29T14:28:27;27.30;;;3.90;;
26269;SDS011;15937;50.612;6.656;2023-05-29T14:32:28;18.97;;;3.40;;
26269;SDS011;15937;50.612;6.656;2023-05-29T14:36:30;16.00;;;3.47;;
26269;SDS011;15937;50.612;6.656;2023-05-29T14:40:32;15.20;;;3.73;;
26269;SDS011;15937;50.612;6.656;2023-05-29T14:48:36;27.40;;;3.80;;
26269;SDS011;15937;50.612;6.656;2023-05-29T14:52:39;15.20;;;3.50;;
26269;SDS011;15937;50.612;6.656;2023-05-29T14:56:41;10.98;;;2.80;;
26269;SDS011;15937;50.612;6.656;2023-05-29T15:00:43;14.83;;;3.50;;
26269;SDS011;15937;50.612;6.656;2023-05-29T15:04:45;12.73;;;3.50;;
26269;SDS011;15937;50.612;6.656;2023-05-29T15:08:47;14.00;;;3.90;;
26269;SDS011;15937;50.612;6.656;2023-05-29T15:12:52;15.02;;;3.45;;
26269;SDS011;15937;50.612;6.656;2023-05-29T15:17:00;12.70;;;4.03;;
26269;SDS011;15937;50.612;6.656;2023-05-29T15:21:03;13.05;;;3.50;;
26269;SDS011;15937;50.612;6.656;2023-05-29T15:25:05;18.13;;;4.15;;
26269;SDS011;15937;50.612;6.656;2023-05-29T15:29:07;17.00;;;3.72;;
26269;SDS011;15937;50.612;6.656;2023-05-29T15:33:09;16.17;;;4.03;;
26269;SDS011;15937;50.612;6.656;2023-05-29T15:37:11;17.85;;;3.45;;
26269;SDS011;15937;50.612;6.656;2023-05-29T15:41:13;18.10;;;3.77;;
26269;SDS011;15937;50.612;6.656;2023-05-29T15:45:18;14.55;;;3.92;;
26269;SDS011;15937;50.612;6.656;2023-05-29T15:53:22;18.17;;;4.00;;
26269;SDS011;15937;50.612;6.656;2023-05-29T15:57:23;13.70;;;3.33;;
26269;SDS011;15937;50.612;6.656;2023-05-29T16:01:25;15.90;;;3.40;;
26269;SDS011;15937;50.612;6.656;2023-05-29T16:05:27;13.60;;;3.63;;
26269;SDS011;15937;50.612;6.656;2023-05-29T16:09:29;14.07;;;3.40;;
26269;SDS011;15937;50.612;6.656;2023-05-29T16:13:31;6.90;;;2.50;;
26269;SDS011;15937;50.612;6.656;2023-05-29T16:17:34;15.00;;;3.13;;
26269;SDS011;15937;50.612;6.656;2023-05-29T16:21:36;14.13;;;3.10;;
26269;SDS011;15937;50.612;6.656;2023-05-29T16:25:37;16.30;;;3.83;;
26269;SDS011;15937;50.612;6.656;2023-05-29T16:29:39;15.37;;;3.17;;
26269;SDS011;15937;50.612;6.656;2023-05-29T16:33:41;15.48;;;3.33;;
26269;SDS011;15937;50.612;6.656;2023-05-29T16:37:43;12.63;;;3.15;;
26269;SDS011;15937;50.612;6.656;2023-05-29T16:41:45;17.10;;;3.57;;
26269;SDS011;15937;50.612;6.656;2023-05-29T16:45:47;10.52;;;3.47;;
26269;SDS011;15937;50.612;6.656;2023-05-29T16:49:48;17.40;;;2.90;;
26269;SDS011;15937;50.612;6.656;2023-05-29T16:57:53;14.05;;;3.13;;
26269;SDS011;15937;50.612;6.656;2023-05-29T17:01:55;11.63;;;3.20;;
26269;SDS011;15937;50.612;6.656;2023-05-29T17:05:56;13.27;;;3.40;;
26269;SDS011;15937;50.612;6.656;2023-05-29T17:09:58;16.50;;;3.10;;
26269;SDS011;15937;50.612;6.656;2023-05-29T17:14:00;17.08;;;3.45;;
26269;SDS011;15937;50.612;6.656;2023-05-29T17:18:02;13.57;;;3.23;;
26269;SDS011;15937;50.612;6.656;2023-05-29T17:22:04;13.90;;;3.47;;
26269;SDS011;15937;50.612;6.656;2023-05-29T17:26:06;12.57;;;3.87;;
26269;SDS011;15937;50.612;6.656;2023-05-29T17:30:08;14.40;;;3.40;;
26269;SDS011;15937;50.612;6.656;2023-05-29T17:34:10;10.73;;;3.38;;
26269;SDS011;15937;50.612;6.656;2023-05-29T17:38:13;16.70;;;3.33;;
26269;SDS011;15937;50.612;6.656;2023-05-29T17:42:15;14.45;;;3.08;;
26269;SDS011;15937;50.612;6.656;2023-05-29T17:46:17;12.32;;;3.38;;
26269;SDS011;15937;50.612;6.656;2023-05-29T17:50:20;12.10;;;3.65;;
26269;SDS011;15937;50.612;6.656;2023-05-29T17:54:22;17.05;;;3.40;;
26269;SDS011;15937;50.612;6.656;2023-05-29T17:58:24;9.73;;;2.90;;
26269;SDS011;15937;50.612;6.656;2023-05-29T18:02:26;10.35;;;3.03;;
26269;SDS011;15937;50.612;6.656;2023-05-29T18:06:28;10.83;;;2.80;;
26269;SDS011;15937;50.612;6.656;2023-05-29T18:10:30;14.23;;;3.30;;
26269;SDS011;15937;50.612;6.656;2023-05-29T18:14:31;14.43;;;3.85;;
26269;SDS011;15937;50.612;6.656;2023-05-29T18:18:33;14.40;;;3.38;;
26269;SDS011;15937;50.612;6.656;2023-05-29T18:22:39;11.60;;;3.28;;
26269;SDS011;15937;50.612;6.656;2023-05-29T18:26:41;18.92;;;3.15;;
26269;SDS011;15937;50.612;6.656;2023-05-29T18:30:44;12.23;;;5.05;;
26269;SDS011;15937;50.612;6.656;2023-05-29T18:34:46;9.93;;;3.28;;
26269;SDS011;15937;50.612;6.656;2023-05-29T18:38:47;11.00;;;3.13;;
26269;SDS011;15937;50.612;6.656;2023-05-29T18:42:54;17.42;;;3.55;;
26269;SDS011;15937;50.612;6.656;2023-05-29T18:46:56;12.00;;;3.00;;
26269;SDS011;15937;50.612;6.656;2023-05-29T18:50:58;19.58;;;3.25;;
26269;SDS011;15937;50.612;6.656;2023-05-29T18:55:02;8.80;;;3.15;;
26269;SDS011;15937;50.612;6.656;2023-05-29T18:59:05;16.42;;;3.20;;
26269;SDS011;15937;50.612;6.656;2023-05-29T19:03:06;14.32;;;3.83;;
26269;SDS011;15937;50.612;6.656;2023-05-29T19:07:09;17.92;;;4.32;;
26269;SDS011;15937;50.612;6.656;2023-05-29T19:11:11;12.73;;;3.40;;
26269;SDS011;15937;50.612;6.656;2023-05-29T19:15:16;12.20;;;3.10;;
26269;SDS011;15937;50.612;6.656;2023-05-29T19:19:18;11.57;;;2.80;;
26269;SDS011;15937;50.612;6.656;2023-05-29T19:23:20;17.58;;;3.10;;
26269;SDS011;15937;50.612;6.656;2023-05-29T19:27:22;9.63;;;2.67;;
26269;SDS011;15937;50.612;6.656;2023-05-29T19:31:24;15.65;;;3.60;;
26269;SDS011;15937;50.612;6.656;2023-05-29T19:35:27;16.00;;;3.42;;
26269;SDS011;15937;50.612;6.656;2023-05-29T19:39:29;9.70;;;3.00;;
26269;SDS011;15937;50.612;6.656;2023-05-29T19:43:32;13.68;;;3.05;;
26269;SDS011;15937;50.612;6.656;2023-05-29T19:47:34;14.35;;;3.20;;
26269;SDS011;15937;50.612;6.656;2023-05-29T19:51:35;13.43;;;3.13;;
26269;SDS011;15937;50.612;6.656;2023-05-29T19:55:37;8.67;;;3.10;;
26269;SDS011;15937;50.612;6.656;2023-05-29T19:59:39;10.95;;;3.63;;
26269;SDS011;15937;50.612;6.656;2023-05-29T20:03:43;17.55;;;2.85;;
26269;SDS011;15937;50.612;6.656;2023-05-29T20:07:46;11.68;;;3.20;;
26269;SDS011;15937;50.612;6.656;2023-05-29T20:11:48;12.20;;;3.43;;
26269;SDS011;15937;50.612;6.656;2023-05-29T20:15:49;11.88;;;3.03;;
26269;SDS011;15937;50.612;6.656;2023-05-29T20:19:51;8.47;;;3.00;;
26269;SDS011;15937;50.612;6.656;2023-05-29T20:23:55;21.45;;;3.00;;
26269;SDS011;15937;50.612;6.656;2023-05-29T20:27:57;8.48;;;2.67;;
26269;SDS011;15937;50.612;6.656;2023-05-29T20:31:59;17.58;;;3.85;;
26269;SDS011;15937;50.612;6.656;2023-05-29T20:36:01;10.50;;;2.57;;
26269;SDS011;15937;50.612;6.656;2023-05-29T20:40:03;12.55;;;3.35;;
26269;SDS011;15937;50.612;6.656;2023-05-29T20:44:05;13.13;;;2.42;;
26269;SDS011;15937;50.612;6.656;2023-05-29T20:48:08;12.98;;;2.63;;
26269;SDS011;15937;50.612;6.656;2023-05-29T20:52:10;14.10;;;3.22;;
26269;SDS011;15937;50.612;6.656;2023-05-29T20:56:13;17.65;;;2.63;;
26269;SDS011;15937;50.612;6.656;2023-05-29T21:00:15;12.17;;;3.13;;
26269;SDS011;15937;50.612;6.656;2023-05-29T21:04:18;10.38;;;2.92;;
26269;SDS011;15937;50.612;6.656;2023-05-29T21:08:20;12.13;;;2.60;;
26269;SDS011;15937;50.612;6.656;2023-05-29T21:12:22;11.20;;;2.95;;
26269;SDS011;15937;50.612;6.656;2023-05-29T21:16:24;12.20;;;2.97;;
26269;SDS011;15937;50.612;6.656;2023-05-29T21:20:26;23.87;;;4.07;;
26269;SDS011;15937;50.612;6.656;2023-05-29T21:24:28;11.23;;;3.70;;
26269;SDS011;15937;50.612;6.656;2023-05-29T21:28:30;10.85;;;2.90;;
26269;SDS011;15937;50.612;6.656;2023-05-29T21:32:31;9.68;;;3.17;;
26269;SDS011;15937;50.612;6.656;2023-05-29T21:36:34;13.00;;;2.65;;
26269;SDS011;15937;50.612;6.656;2023-05-29T21:40:38;17.45;;;3.40;;
26269;SDS011;15937;50.612;6.656;2023-05-29T21:44:41;11.93;;;3.05;;
26269;SDS011;15937;50.612;6.656;2023-05-29T21:48:44;15.02;;;4.07;;
26269;SDS011;15937;50.612;6.656;2023-05-29T21:52:46;11.45;;;2.92;;
26269;SDS011;15937;50.612;6.656;2023-05-29T21:56:48;9.80;;;3.45;;
26269;SDS011;15937;50.612;6.656;2023-05-29T22:00:50;13.55;;;3.17;;
26269;SDS011;15937;50.612;6.656;2023-05-29T22:04:52;12.10;;;3.00;;
26269;SDS011;15937;50.612;6.656;2023-05-29T22:08:54;12.48;;;3.30;;
26269;SDS011;15937;50.612;6.656;2023-05-29T22:12:59;16.20;;;2.85;;
26269;SDS011;15937;50.612;6.656;2023-05-29T22:17:04;25.40;;;3.50;;
26269;SDS011;15937;50.612;6.656;2023-05-29T22:21:06;12.90;;;3.28;;
26269;SDS011;15937;50.612;6.656;2023-05-29T22:25:10;11.82;;;3.10;;
26269;SDS011;15937;50.612;6.656;2023-05-29T22:29:16;15.90;;;3.40;;
26269;SDS011;15937;50.612;6.656;2023-05-29T22:33:18;14.32;;;3.08;;
26269;SDS011;15937;50.612;6.656;2023-05-29T22:37:20;15.23;;;4.30;;
26269;SDS011;15937;50.612;6.656;2023-05-29T22:41:22;15.02;;;3.47;;
26269;SDS011;15937;50.612;6.656;2023-05-29T22:45:23;17.58;;;2.88;;
26269;SDS011;15937;50.612;6.656;2023-05-29T22:49:27;17.90;;;3.58;;
26269;SDS011;15937;50.612;6.656;2023-05-29T22:53:29;17.92;;;3.13;;
26269;SDS011;15937;50.612;6.656;2023-05-29T22:57:31;20.17;;;2.95;;
26269;SDS011;15937;50.612;6.656;2023-05-29T23:01:34;13.45;;;3.70;;
26269;SDS011;15937;50.612;6.656;2023-05-29T23:05:37;13.07;;;3.03;;
26269;SDS011;15937;50.612;6.656;2023-05-29T23:09:39;9.98;;;3.65;;
26269;SDS011;15937;50.612;6.656;2023-05-29T23:13:41;17.47;;;3.53;;
26269;SDS011;15937;50.612;6.656;2023-05-29T23:17:42;14.68;;;3.33;;
26269;SDS011;15937;50.612;6.656;2023-05-29T23:21:44;11.73;;;3.25;;
26269;SDS011;15937;50.612;6.656;2023-05-29T23:25:47;16.08;;;4.60;;
26269;SDS011;15937;50.612;6.656;2023-05-29T23:29:49;15.18;;;3.13;;
26269;SDS011;15937;50.612;6.656;2023-05-29T23:33:51;17.02;;;4.13;;
26269;SDS011;15937;50.612;6.656;2023-05-29T23:37:53;10.85;;;3.28;;
26269;SDS011;15937;50.612;6.656;2023-05-29T23:41:55;7.35;;;3.33;;
26269;SDS011;15937;50.612;6.656;2023-05-29T23:45:57;13.55;;;3.35;;
26269;SDS011;15937;50.612;6.656;2023-05-29T23:49:59;14.68;;;3.25;;
26269;SDS011;15937;50.612;6.656;2023-05-29T23:54:01;11.27;;;2.92;;
26269;SDS011;15937;50.612;6.656;2023-05-29T23:58:04;12.35;;;3.30;;
